Main page
METAR-TAF:

METAR-TAF

Airports :

Pohakuloa Training Area

Bradshaw, Hawaii, United States

latitude: 19-47N, longitude: 155-33W, elevation: 1887 m

Current weather observation

The report was made 2 hours and 37 minutes ago, at 18:56 UTC
Calm wind
Temperature 21°C
Humidity 56%
Pressure 1028 hPa
Visibility: 16.1 km
Clear sky

METAR: PHSF 021856Z 00000KT 10SM CLR 21/12 A3035 RMK SLP154

Time: 11:33 (21:33 UTC)


TAF: missing

Weather observations and forecasts of more than 4000 airports (METAR and TAF reports).

The available stations are represented by yellow and red dots on the map.

Hover mouse over dot to see the name of the station.

Then click to see weather observations and forecasts.

To change the map : click on the green buttons with a black cross to zoom in, on the green button with a dash to zoom out, or on the green arrows for adjacent maps.


METAR-TAF: